Terminal Aerodrome Forecast
Issued by NWS

Home | Current Version | Previous Version | Graphics & Text | Print | Product List | Glossary Off
Versions: 1 2 3 4 5 6 7 8 9 10 11 12 13 14

799
FTUS43 KMPX 280520
TAFRWF
TAF
KRWF 280520Z 2806/2906 33005KT P6SM SCT250
     FM281500 35007KT P6SM SCT025 OVC150
     FM290000 03004KT P6SM SCT035 OVC080=

USA.gov is the U.S. government's official web portal to all federal, state and local government web resources and services.